Time;durP1;ratioP1;P1;durP2;ratioP2;P2;SDS_P1;SDS_P2;PMS_P1;PMS_P2;Temp;Humidity;BMP_temperature;BMP_pressure;BME280_temperature;BME280_humidity;BME280_pressure;Samples;Min_cycle;Max_cycle;Signal;HPM_P1;HPM_P2
2023/11/07 00:00:33;;;;;;;28.45;22.60;;;;;21.80;99611.00;;;;2092040;28;20290;-68
2023/11/07 00:01:33;;;;;;;29.97;22.30;;;;;21.80;99615.00;;;;2095824;28;20212;-68
2023/11/07 00:02:34;;;;;;;31.53;23.23;;;;;21.80;99614.00;;;;2080172;28;20217;-68
2023/11/07 00:03:34;;;;;;;29.37;21.60;;;;;21.80;99617.00;;;;2094742;28;20258;-68
2023/11/07 00:04:35;;;;;;;27.70;21.37;;;;;21.70;99617.00;;;;2088086;28;20260;-68
2023/11/07 00:05:35;;;;;;;25.57;20.83;;;;;21.70;99610.00;;;;2092235;28;20711;-68
2023/11/07 00:06:35;;;;;;;26.80;19.73;;;;;21.80;99591.00;;;;2092842;28;20239;-68
2023/11/07 00:07:36;;;;;;;25.63;19.87;;;;;21.70;99625.00;;;;2076729;28;20206;-68
2023/11/07 00:08:37;;;;;;;26.77;21.10;;;;;21.70;99635.00;;;;2097973;28;20204;-68
2023/11/07 00:09:37;;;;;;;28.33;22.03;;;;;21.70;99614.00;;;;2088575;28;20196;-68
2023/11/07 00:10:37;;;;;;;28.13;20.87;;;;;21.70;99612.00;;;;2092199;28;20313;-68
2023/11/07 00:11:39;;;;;;;27.60;19.73;;;;;21.70;99610.00;;;;2094159;28;20757;-68
2023/11/07 00:12:39;;;;;;;26.50;20.35;;;;;21.70;99615.00;;;;2087854;28;20465;-68
2023/11/07 00:13:42;;;;;;;23.60;18.90;;;;;21.70;99614.00;;;;2093970;28;20213;-68
2023/11/07 00:14:43;;;;;;;23.65;18.33;;;;;21.70;99625.00;;;;2089534;28;20228;-68
2023/11/07 00:15:44;;;;;;;26.80;19.17;;;;;21.70;99632.00;;;;2093210;28;20211;-68
2023/11/07 00:16:44;;;;;;;25.20;19.05;;;;;21.70;99627.00;;;;2092447;28;20223;-68
2023/11/07 00:17:45;;;;;;;23.43;17.50;;;;;21.70;99626.00;;;;2087853;28;20908;-68
2023/11/07 00:18:47;;;;;;;21.20;17.20;;;;;21.70;99630.00;;;;2087775;28;20230;-68
2023/11/07 00:19:47;;;;;;;25.50;18.17;;;;;21.70;99621.00;;;;2084842;28;20273;-68
2023/11/07 00:20:47;;;;;;;23.73;16.90;;;;;21.70;99626.00;;;;2088497;28;20279;-68
2023/11/07 00:21:48;;;;;;;22.97;16.90;;;;;21.70;99633.00;;;;2089400;28;20216;-68
2023/11/07 00:22:48;;;;;;;21.80;16.60;;;;;21.70;99631.00;;;;2087768;28;20238;-68
2023/11/07 00:23:49;;;;;;;19.30;15.70;;;;;21.70;99629.00;;;;2088554;28;20307;-68
2023/11/07 00:24:49;;;;;;;20.43;16.00;;;;;21.70;99637.00;;;;2089642;28;20300;-68
2023/11/07 00:25:52;;;;;;;21.53;15.60;;;;;21.70;99631.00;;;;2088660;28;20817;-68
2023/11/07 00:26:53;;;;;;;20.25;15.40;;;;;21.70;99628.00;;;;2094157;28;20265;-68
2023/11/07 00:27:53;;;;;;;21.37;15.23;;;;;21.70;99627.00;;;;2085683;28;20236;-68
2023/11/07 00:28:54;;;;;;;20.80;15.43;;;;;21.70;99632.00;;;;2085975;28;20225;-68
2023/11/07 00:29:54;;;;;;;21.00;15.53;;;;;21.70;99615.00;;;;2089305;28;20225;-68
2023/11/07 00:30:54;;;;;;;22.13;14.40;;;;;21.70;99633.00;;;;2100499;28;20215;-68
2023/11/07 00:31:54;;;;;;;21.13;14.90;;;;;21.60;99593.00;;;;2088517;28;20252;-68
2023/11/07 00:32:56;;;;;;;18.93;14.67;;;;;21.60;99625.00;;;;2063347;28;20321;-68
2023/11/07 00:33:56;;;;;;;19.42;14.73;;;;;21.60;99623.00;;;;2087735;28;20230;-68
2023/11/07 00:34:56;;;;;;;18.30;13.90;;;;;21.60;99625.00;;;;2088296;28;20221;-68
2023/11/07 00:35:58;;;;;;;19.53;14.87;;;;;21.60;99627.00;;;;2094329;28;20219;-68
2023/11/07 00:36:58;;;;;;;18.50;14.48;;;;;21.70;99623.00;;;;2097119;28;20223;-68
2023/11/07 00:37:59;;;;;;;19.17;14.20;;;;;21.70;99614.00;;;;2081348;28;20223;-68
2023/11/07 00:39:00;;;;;;;17.83;12.97;;;;;21.60;99626.00;;;;2089153;28;20221;-68
2023/11/07 00:40:01;;;;;;;18.00;13.13;;;;;21.60;99636.00;;;;2086671;28;20213;-68
2023/11/07 00:41:03;;;;;;;17.83;13.60;;;;;21.60;99631.00;;;;2092909;28;20215;-68
2023/11/07 00:42:04;;;;;;;18.50;12.90;;;;;21.60;99608.00;;;;2097549;28;20443;-68
2023/11/07 00:43:04;;;;;;;15.65;12.10;;;;;21.60;99632.00;;;;2084014;28;20224;-68
2023/11/07 00:44:06;;;;;;;15.40;12.47;;;;;21.60;99631.00;;;;2090837;28;20227;-68
2023/11/07 00:45:06;;;;;;;18.67;12.05;;;;;21.60;99636.00;;;;2089261;28;20684;-68
2023/11/07 00:46:07;;;;;;;15.63;12.20;;;;;21.60;99634.00;;;;2089389;28;20217;-68
2023/11/07 00:47:08;;;;;;;18.33;12.27;;;;;21.60;99632.00;;;;2091955;28;20239;-68
2023/11/07 00:48:09;;;;;;;16.30;12.77;;;;;21.60;99636.00;;;;2086047;28;20219;-68
2023/11/07 00:49:10;;;;;;;15.43;11.20;;;;;21.60;99633.00;;;;2090661;28;20452;-68
2023/11/07 00:50:10;;;;;;;16.13;11.93;;;;;21.50;99634.00;;;;2081850;28;20218;-68
2023/11/07 00:51:11;;;;;;;16.53;11.13;;;;;21.60;99637.00;;;;2088047;28;20213;-68
2023/11/07 00:52:12;;;;;;;14.20;11.75;;;;;21.60;99642.00;;;;2088599;28;20287;-68
2023/11/07 00:53:13;;;;;;;14.63;11.63;;;;;21.60;99649.00;;;;2085536;28;20213;-68
2023/11/07 00:54:14;;;;;;;16.37;11.30;;;;;21.60;99649.00;;;;2089372;28;20212;-68
2023/11/07 00:55:14;;;;;;;15.10;11.15;;;;;21.60;99644.00;;;;2089227;28;20447;-68
2023/11/07 00:56:14;;;;;;;13.13;10.30;;;;;21.60;99642.00;;;;2096231;28;20218;-68
2023/11/07 00:57:16;;;;;;;13.83;10.50;;;;;21.60;99646.00;;;;2088315;28;20209;-68
2023/11/07 00:58:16;;;;;;;15.38;11.25;;;;;21.50;99650.00;;;;2086882;28;20220;-68
2023/11/07 00:59:18;;;;;;;16.73;11.20;;;;;21.60;99645.00;;;;2088957;28;20221;-68
2023/11/07 01:00:19;;;;;;;15.05;10.98;;;;;21.50;99652.00;;;;2088482;28;20225;-68
2023/11/07 01:01:20;;;;;;;15.15;11.20;;;;;21.60;99655.00;;;;2092484;28;20672;-68
2023/11/07 01:02:20;;;;;;;13.27;10.17;;;;;21.60;99630.00;;;;2097207;28;20223;-68
2023/11/07 01:03:21;;;;;;;12.40;10.03;;;;;21.50;99646.00;;;;2086805;28;20688;-68
2023/11/07 01:04:21;;;;;;;14.13;10.35;;;;;21.50;99660.00;;;;2088442;28;20611;-68
2023/11/07 01:05:22;;;;;;;12.87;10.40;;;;;21.50;99657.00;;;;2088236;28;20213;-68
2023/11/07 01:06:22;;;;;;;13.53;9.33;;;;;21.50;99657.00;;;;2087831;28;20205;-68
2023/11/07 01:07:22;;;;;;;14.33;9.27;;;;;21.50;99661.00;;;;2096487;28;20281;-68
2023/11/07 01:08:23;;;;;;;11.03;8.77;;;;;21.50;99666.00;;;;2085701;28;20274;-68
2023/11/07 01:09:23;;;;;;;11.13;8.90;;;;;21.50;99660.00;;;;2088907;28;20271;-68
2023/11/07 01:10:23;;;;;;;13.90;10.00;;;;;21.50;99658.00;;;;2089187;28;21204;-68
2023/11/07 01:11:24;;;;;;;10.50;8.23;;;;;21.50;99661.00;;;;2090011;28;20217;-68
2023/11/07 01:12:24;;;;;;;11.10;8.93;;;;;21.50;99660.00;;;;2096019;28;20582;-68
2023/11/07 01:13:24;;;;;;;13.13;9.10;;;;;21.50;99662.00;;;;2085917;28;20257;-68
2023/11/07 01:14:25;;;;;;;11.53;9.00;;;;;21.50;99661.00;;;;2089177;28;20645;-68
2023/11/07 01:15:25;;;;;;;10.07;8.00;;;;;21.50;99669.00;;;;2089112;28;20730;-68
2023/11/07 01:16:26;;;;;;;11.70;9.00;;;;;21.50;99670.00;;;;2088621;28;20701;-68
2023/11/07 01:17:26;;;;;;;13.90;9.20;;;;;21.50;99662.00;;;;2087148;28;20227;-68
2023/11/07 01:18:27;;;;;;;12.80;9.10;;;;;21.50;99670.00;;;;2087937;28;20265;-68
2023/11/07 01:19:28;;;;;;;10.65;8.95;;;;;21.50;99675.00;;;;2095673;28;20214;-68
2023/11/07 01:20:28;;;;;;;9.93;8.00;;;;;21.50;99647.00;;;;2072641;28;20740;-68
2023/11/07 01:21:29;;;;;;;10.90;8.00;;;;;21.50;99665.00;;;;2064582;28;20222;-68
2023/11/07 01:22:29;;;;;;;12.80;8.97;;;;;21.50;99670.00;;;;2078050;28;20213;-68
2023/11/07 01:23:29;;;;;;;11.87;7.90;;;;;21.50;99671.00;;;;2086993;28;20571;-68
2023/11/07 01:24:29;;;;;;;10.30;8.40;;;;;21.50;99665.00;;;;2096084;28;20747;-68
2023/11/07 01:25:30;;;;;;;12.17;8.90;;;;;21.50;99659.00;;;;2074645;28;20825;-68
2023/11/07 01:26:30;;;;;;;11.07;8.00;;;;;21.50;99668.00;;;;2081025;28;20690;-68
2023/11/07 01:27:31;;;;;;;12.03;8.80;;;;;21.50;99659.00;;;;2077345;28;20240;-68
2023/11/07 01:28:31;;;;;;;10.87;7.80;;;;;21.50;99679.00;;;;2073902;28;20206;-68
2023/11/07 01:29:32;;;;;;;9.90;7.50;;;;;21.50;99662.00;;;;2096577;28;20784;-68
2023/11/07 01:30:32;;;;;;;10.80;7.40;;;;;21.50;99657.00;;;;2089386;28;20757;-68
2023/11/07 01:31:32;;;;;;;10.97;6.77;;;;;21.50;99665.00;;;;2084783;28;20205;-68
2023/11/07 01:32:33;;;;;;;9.30;7.00;;;;;21.40;99662.00;;;;2079258;28;20202;-68
2023/11/07 01:33:34;;;;;;;8.43;6.33;;;;;21.50;99668.00;;;;2103727;28;20594;-68
2023/11/07 01:34:35;;;;;;;8.27;6.63;;;;;21.50;99671.00;;;;2088677;28;20248;-68
2023/11/07 01:35:36;;;;;;;9.70;7.13;;;;;21.50;99677.00;;;;2088976;28;20232;-68
2023/11/07 01:36:36;;;;;;;9.73;6.87;;;;;21.50;99674.00;;;;2096380;28;20455;-68
2023/11/07 01:37:36;;;;;;;11.00;6.87;;;;;21.40;99674.00;;;;2080278;28;20237;-68
2023/11/07 01:38:37;;;;;;;10.47;7.67;;;;;21.50;99664.00;;;;2095553;28;20281;-68
2023/11/07 01:39:37;;;;;;;8.20;6.50;;;;;21.50;99669.00;;;;2087089;28;20209;-68
2023/11/07 01:40:37;;;;;;;8.47;6.90;;;;;21.50;99673.00;;;;2084108;28;20213;-68
2023/11/07 01:41:38;;;;;;;9.50;6.17;;;;;21.50;99679.00;;;;2096679;28;20209;-68
2023/11/07 01:42:45;;;;;;;8.40;6.60;;;;;21.50;99627.00;;;;2076001;28;20206;-68
2023/11/07 01:43:46;;;;;;;9.15;6.47;;;;;21.50;99668.00;;;;2094586;28;20215;-68
2023/11/07 01:44:50;;;;;;;9.30;6.73;;;;;21.40;99666.00;;;;2090217;28;20659;-68
2023/11/07 01:45:50;;;;;;;9.40;6.78;;;;;21.50;99639.00;;;;2076988;28;20519;-68
2023/11/07 01:46:50;;;;;;;11.13;7.10;;;;;21.40;99673.00;;;;2074706;28;20230;-68
2023/11/07 01:47:51;;;;;;;8.47;6.20;;;;;21.40;99668.00;;;;2073416;28;20216;-68
2023/11/07 01:48:52;;;;;;;10.60;6.37;;;;;21.40;99672.00;;;;2090950;28;20252;-68
2023/11/07 01:49:52;;;;;;;8.23;5.78;;;;;21.40;99663.00;;;;2091498;28;20239;-68
2023/11/07 01:50:53;;;;;;;7.40;6.07;;;;;21.40;99665.00;;;;2088309;28;20231;-68
2023/11/07 01:51:54;;;;;;;9.10;5.80;;;;;21.40;99674.00;;;;2092734;28;20723;-68
2023/11/07 01:52:55;;;;;;;7.85;5.38;;;;;21.40;99668.00;;;;2083333;28;20639;-68
2023/11/07 01:53:56;;;;;;;9.93;5.87;;;;;21.40;99673.00;;;;2073699;28;20255;-68
2023/11/07 01:54:56;;;;;;;8.00;5.53;;;;;21.40;99641.00;;;;2083758;28;20476;-68
2023/11/07 01:55:57;;;;;;;7.20;5.60;;;;;21.40;99674.00;;;;2096399;28;20220;-68
2023/11/07 01:56:57;;;;;;;9.02;5.80;;;;;21.40;99688.00;;;;2083072;28;20225;-68
2023/11/07 01:58:01;;;;;;;7.50;5.47;;;;;21.40;99683.00;;;;2085419;28;20800;-68
2023/11/07 01:59:02;;;;;;;7.65;5.15;;;;;21.40;99681.00;;;;2081506;28;20283;-68
2023/11/07 02:00:10;;;;;;;8.17;5.30;;;;;21.40;99663.00;;;;2084584;28;20771;-68
2023/11/07 02:01:10;;;;;;;7.78;5.10;;;;;21.40;99681.00;;;;2091387;28;20303;-68
2023/11/07 02:02:17;;;;;;;7.50;4.80;;;;;21.40;99670.00;;;;2086532;28;20268;-68
2023/11/07 02:03:18;;;;;;;7.18;5.30;;;;;21.40;99677.00;;;;2067870;28;20639;-68
2023/11/07 02:04:18;;;;;;;6.90;5.37;;;;;21.40;99675.00;;;;2080510;28;20232;-68
2023/11/07 02:05:18;;;;;;;7.17;4.57;;;;;21.40;99681.00;;;;2078497;28;20217;-68
2023/11/07 02:06:19;;;;;;;6.60;5.30;;;;;21.40;99674.00;;;;2071037;28;20300;-68
2023/11/07 02:07:19;;;;;;;7.07;5.03;;;;;21.40;99685.00;;;;2086444;28;20220;-68
2023/11/07 02:08:23;;;;;;;6.43;4.97;;;;;21.40;99617.00;;;;2080496;28;20205;-68
2023/11/07 02:09:23;;;;;;;7.50;4.90;;;;;21.40;99673.00;;;;2080772;28;20725;-68
2023/11/07 02:10:23;;;;;;;7.63;5.53;;;;;21.40;99678.00;;;;2099571;28;20225;-68
2023/11/07 02:11:24;;;;;;;7.03;4.90;;;;;21.40;99667.00;;;;2095687;28;20216;-68
2023/11/07 02:12:24;;;;;;;6.80;5.03;;;;;21.40;99682.00;;;;2078344;28;20210;-68
2023/11/07 02:13:24;;;;;;;5.80;4.63;;;;;21.40;99621.00;;;;2073391;28;20225;-68
2023/11/07 02:14:28;;;;;;;5.77;4.80;;;;;21.40;99674.00;;;;2088499;28;20239;-68
2023/11/07 02:15:31;;;;;;;8.27;4.70;;;;;21.40;99674.00;;;;2083120;28;20764;-68
2023/11/07 02:16:31;;;;;;;6.35;4.45;;;;;21.40;99674.00;;;;2088232;28;20288;-68
2023/11/07 02:17:32;;;;;;;6.17;4.07;;;;;21.40;99677.00;;;;2084072;28;20208;-68
2023/11/07 02:18:32;;;;;;;6.07;4.63;;;;;21.40;99671.00;;;;2088698;28;20217;-68
2023/11/07 02:19:32;;;;;;;6.53;4.13;;;;;21.40;99678.00;;;;2083714;28;20202;-68
2023/11/07 02:20:36;;;;;;;5.00;4.03;;;;;21.40;99678.00;;;;2084464;28;20243;-68
2023/11/07 02:21:36;;;;;;;5.45;3.90;;;;;21.40;99636.00;;;;2104029;28;20222;-68
2023/11/07 02:22:37;;;;;;;7.20;4.90;;;;;21.40;99653.00;;;;2079537;28;20221;-68
2023/11/07 02:23:37;;;;;;;5.40;3.77;;;;;21.30;99667.00;;;;2078591;28;20201;-68
2023/11/07 02:24:37;;;;;;;5.87;3.93;;;;;21.40;99669.00;;;;2078944;28;20248;-68
2023/11/07 02:25:41;;;;;;;5.27;4.37;;;;;21.40;99666.00;;;;2090195;28;20209;-68
2023/11/07 02:26:41;;;;;;;5.07;4.03;;;;;21.30;99668.00;;;;2089333;28;20209;-68
2023/11/07 02:27:41;;;;;;;5.50;4.43;;;;;21.40;99606.00;;;;2074301;28;20686;-68
2023/11/07 02:28:44;;;;;;;5.13;3.60;;;;;21.30;99647.00;;;;2087814;28;20696;-68
2023/11/07 02:29:45;;;;;;;7.07;4.28;;;;;21.30;99672.00;;;;2086826;28;20212;-68
2023/11/07 02:30:46;;;;;;;5.88;4.22;;;;;21.40;99668.00;;;;2096985;28;20212;-68
2023/11/07 02:31:46;;;;;;;4.70;3.70;;;;;21.40;99670.00;;;;2087823;28;20571;-68
2023/11/07 02:32:47;;;;;;;5.63;3.93;;;;;21.30;99668.00;;;;2080725;28;20282;-68
2023/11/07 02:33:47;;;;;;;5.00;4.00;;;;;21.30;99661.00;;;;2079632;28;20255;-68
2023/11/07 02:34:48;;;;;;;5.20;3.60;;;;;21.30;99667.00;;;;2089457;28;20217;-68
2023/11/07 02:35:49;;;;;;;5.10;3.42;;;;;21.30;99665.00;;;;2096075;28;20212;-68
2023/11/07 02:36:50;;;;;;;7.33;3.33;;;;;21.30;99667.00;;;;2074706;28;20227;-68
2023/11/07 02:37:50;;;;;;;4.35;3.30;;;;;21.30;99672.00;;;;2072433;28;20229;-68
2023/11/07 02:38:51;;;;;;;5.30;3.37;;;;;21.30;99661.00;;;;2093507;28;20225;-68
2023/11/07 02:39:51;;;;;;;5.67;3.80;;;;;21.30;99664.00;;;;2090828;28;20223;-68
2023/11/07 02:40:51;;;;;;;5.77;3.40;;;;;21.30;99676.00;;;;2096801;28;20216;-68
2023/11/07 02:41:52;;;;;;;3.80;3.00;;;;;21.30;99673.00;;;;2089016;28;20216;-68
2023/11/07 02:42:52;;;;;;;5.23;3.40;;;;;21.30;99670.00;;;;2086833;28;20208;-68
2023/11/07 02:43:52;;;;;;;4.33;3.43;;;;;21.30;99672.00;;;;2092392;28;20221;-68
2023/11/07 02:44:53;;;;;;;4.77;3.30;;;;;21.30;99669.00;;;;2090754;28;20614;-68
2023/11/07 02:45:53;;;;;;;4.37;3.30;;;;;21.30;99670.00;;;;2094661;28;20208;-68
2023/11/07 02:46:54;;;;;;;5.10;3.13;;;;;21.30;99664.00;;;;2087778;28;20716;-68
2023/11/07 02:47:54;;;;;;;4.70;2.90;;;;;21.30;99666.00;;;;2078692;28;20248;-68
2023/11/07 02:48:54;;;;;;;6.57;3.17;;;;;21.30;99665.00;;;;2087259;28;20217;-68
2023/11/07 02:49:55;;;;;;;4.63;3.37;;;;;21.30;99654.00;;;;2091025;28;20259;-68
2023/11/07 02:50:55;;;;;;;5.40;3.37;;;;;21.30;99657.00;;;;2092473;28;20220;-68
2023/11/07 02:51:56;;;;;;;3.93;2.57;;;;;21.30;99661.00;;;;2091113;28;20702;-68
2023/11/07 02:52:56;;;;;;;4.83;3.43;;;;;21.30;99655.00;;;;2085982;28;20216;-68
2023/11/07 02:53:57;;;;;;;5.50;3.00;;;;;21.30;99670.00;;;;2087574;28;20576;-68
2023/11/07 02:54:57;;;;;;;4.13;3.37;;;;;21.30;99665.00;;;;2091542;28;20216;-68
2023/11/07 02:55:57;;;;;;;5.07;3.33;;;;;21.30;99669.00;;;;2092925;28;20239;-68
2023/11/07 02:56:57;;;;;;;5.40;3.20;;;;;21.30;99667.00;;;;2096529;28;20226;-68
2023/11/07 02:57:58;;;;;;;6.23;3.07;;;;;21.30;99643.00;;;;2081777;28;20240;-68
2023/11/07 02:58:59;;;;;;;4.30;3.57;;;;;21.20;99668.00;;;;2083341;28;20244;-68
2023/11/07 02:59:59;;;;;;;5.03;3.00;;;;;21.30;99668.00;;;;2091100;28;20212;-68
2023/11/07 03:00:59;;;;;;;3.70;2.73;;;;;21.30;99666.00;;;;2089791;28;20719;-68
2023/11/07 03:02:01;;;;;;;3.10;2.60;;;;;21.30;99672.00;;;;2091709;28;20633;-68
2023/11/07 03:03:03;;;;;;;4.45;2.95;;;;;21.30;99607.00;;;;2077598;28;20215;-68
2023/11/07 03:04:04;;;;;;;3.78;2.53;;;;;21.30;99670.00;;;;2088332;28;20236;-68
2023/11/07 03:05:05;;;;;;;5.10;2.77;;;;;21.30;99673.00;;;;2089387;28;20223;-67
2023/11/07 03:06:06;;;;;;;4.38;2.83;;;;;21.30;99634.00;;;;2092665;28;20550;-67
2023/11/07 03:07:07;;;;;;;4.60;2.43;;;;;21.30;99678.00;;;;2095628;28;20247;-67
2023/11/07 03:08:08;;;;;;;4.63;2.37;;;;;21.30;99672.00;;;;2081507;28;20675;-67
2023/11/07 03:09:08;;;;;;;4.10;2.50;;;;;21.30;99673.00;;;;2091796;28;20300;-67
2023/11/07 03:10:08;;;;;;;3.10;2.60;;;;;21.30;99670.00;;;;2088108;28;20270;-67
2023/11/07 03:11:09;;;;;;;4.43;2.60;;;;;21.30;99674.00;;;;2093065;28;20220;-67
2023/11/07 03:12:14;;;;;;;4.60;2.90;;;;;21.30;99677.00;;;;2094212;28;20667;-67
2023/11/07 03:13:14;;;;;;;3.95;2.60;;;;;21.30;99675.00;;;;2081531;28;20213;-67
2023/11/07 03:14:14;;;;;;;4.43;2.43;;;;;21.30;99667.00;;;;2090844;28;20212;-67
2023/11/07 03:15:15;;;;;;;4.10;2.57;;;;;21.30;99646.00;;;;2087273;28;20212;-67
2023/11/07 03:16:15;;;;;;;3.80;2.50;;;;;21.30;99674.00;;;;2094005;28;20247;-67
2023/11/07 03:17:16;;;;;;;4.33;2.70;;;;;21.20;99672.00;;;;2091365;28;20212;-67
2023/11/07 03:18:16;;;;;;;2.60;2.17;;;;;21.30;99674.00;;;;2078345;28;20217;-67
2023/11/07 03:19:17;;;;;;;3.27;2.33;;;;;21.20;99675.00;;;;2087069;28;20217;-67
2023/11/07 03:20:17;;;;;;;4.50;2.40;;;;;21.20;99671.00;;;;2091770;28;20243;-67
2023/11/07 03:21:18;;;;;;;3.57;2.17;;;;;21.30;99679.00;;;;2096480;28;20219;-67
2023/11/07 03:22:20;;;;;;;3.83;2.05;;;;;21.30;99667.00;;;;2089082;28;20209;-67
2023/11/07 03:23:21;;;;;;;3.85;2.67;;;;;21.20;99677.00;;;;2084029;28;20230;-67
2023/11/07 03:24:21;;;;;;;3.57;2.30;;;;;21.20;99671.00;;;;2087976;28;20216;-67
2023/11/07 03:25:21;;;;;;;3.73;2.60;;;;;21.30;99669.00;;;;2088230;28;20265;-67
2023/11/07 03:26:21;;;;;;;3.50;2.30;;;;;21.20;99670.00;;;;2093805;28;20219;-67
2023/11/07 03:27:22;;;;;;;3.23;2.37;;;;;21.20;99675.00;;;;2087417;28;20732;-67
2023/11/07 03:28:22;;;;;;;4.17;2.53;;;;;21.20;99675.00;;;;2091920;28;20864;-67
2023/11/07 03:29:22;;;;;;;3.30;2.40;;;;;21.20;99676.00;;;;2096166;28;20235;-67
2023/11/07 03:30:23;;;;;;;4.60;2.50;;;;;21.20;99680.00;;;;2095033;28;20265;-67
2023/11/07 03:31:23;;;;;;;5.67;2.97;;;;;21.20;99680.00;;;;2092471;28;20213;-67
2023/11/07 03:32:23;;;;;;;3.67;1.83;;;;;21.20;99671.00;;;;2092667;28;20297;-67
2023/11/07 03:33:25;;;;;;;4.43;2.43;;;;;21.20;99672.00;;;;2085081;28;20208;-67
2023/11/07 03:34:25;;;;;;;4.45;2.00;;;;;21.20;99667.00;;;;2087293;28;20230;-67
2023/11/07 03:35:27;;;;;;;3.23;2.23;;;;;21.20;99678.00;;;;2095023;28;20219;-67
2023/11/07 03:36:27;;;;;;;4.03;2.03;;;;;21.20;99674.00;;;;2089348;28;20726;-67
2023/11/07 03:37:27;;;;;;;3.27;2.27;;;;;21.20;99682.00;;;;2084968;28;20222;-67
2023/11/07 03:38:27;;;;;;;4.20;2.10;;;;;21.20;99668.00;;;;2092239;28;20219;-67
2023/11/07 03:39:28;;;;;;;3.63;2.10;;;;;21.20;99672.00;;;;2086365;28;20267;-67
2023/11/07 03:40:28;;;;;;;2.93;1.90;;;;;21.20;99681.00;;;;2094629;28;20208;-67
2023/11/07 03:41:29;;;;;;;2.30;1.70;;;;;21.20;99663.00;;;;2087223;28;20215;-67
2023/11/07 03:42:29;;;;;;;4.13;1.80;;;;;21.20;99676.00;;;;2085545;28;20286;-67
2023/11/07 03:43:30;;;;;;;2.87;1.70;;;;;21.20;99672.00;;;;2091020;28;20220;-67
2023/11/07 03:44:31;;;;;;;2.90;1.80;;;;;21.20;99668.00;;;;2088178;28;20209;-67
2023/11/07 03:45:31;;;;;;;3.00;2.00;;;;;21.20;99672.00;;;;2100793;28;20718;-67
2023/11/07 03:46:32;;;;;;;2.80;1.83;;;;;21.20;99672.00;;;;2099181;28;20624;-67
2023/11/07 03:47:33;;;;;;;2.60;1.67;;;;;21.20;99669.00;;;;2079244;28;20672;-67
2023/11/07 03:48:34;;;;;;;3.05;1.95;;;;;21.20;99665.00;;;;2088817;28;20677;-67
2023/11/07 03:49:34;;;;;;;3.97;2.10;;;;;21.20;99670.00;;;;2088324;28;20219;-67
2023/11/07 03:50:35;;;;;;;2.20;1.50;;;;;21.20;99670.00;;;;2092020;28;20217;-67
2023/11/07 03:51:35;;;;;;;2.30;1.52;;;;;21.10;99645.00;;;;2096149;28;20223;-67
2023/11/07 03:52:36;;;;;;;3.37;1.90;;;;;21.20;99672.00;;;;2086395;28;20231;-67
2023/11/07 03:53:36;;;;;;;2.70;1.50;;;;;21.20;99680.00;;;;2087772;28;20220;-67
2023/11/07 03:54:36;;;;;;;2.30;1.43;;;;;21.20;99626.00;;;;2088175;28;20223;-67
2023/11/07 03:55:37;;;;;;;3.27;2.07;;;;;21.20;99674.00;;;;2090392;28;20291;-67
2023/11/07 03:56:37;;;;;;;3.00;1.87;;;;;21.20;99671.00;;;;2095573;28;20925;-67
2023/11/07 03:57:38;;;;;;;2.17;1.57;;;;;21.20;99677.00;;;;2083246;28;20239;-67
2023/11/07 03:58:38;;;;;;;3.10;1.90;;;;;21.20;99684.00;;;;2096246;28;20727;-67
2023/11/07 03:59:38;;;;;;;2.20;1.50;;;;;21.20;99674.00;;;;2088214;28;20201;-67
2023/11/07 04:00:40;;;;;;;2.50;1.70;;;;;21.20;99676.00;;;;2089022;28;20201;-67
2023/11/07 04:01:40;;;;;;;2.70;1.75;;;;;21.20;99681.00;;;;2095887;28;20208;-67
2023/11/07 04:02:41;;;;;;;3.10;1.50;;;;;21.20;99677.00;;;;2077833;28;20240;-67
2023/11/07 04:03:41;;;;;;;2.37;1.60;;;;;21.20;99680.00;;;;2096037;28;20203;-67
2023/11/07 04:04:41;;;;;;;3.50;1.50;;;;;21.20;99683.00;;;;2088535;28;20216;-67
2023/11/07 04:05:42;;;;;;;2.13;1.60;;;;;21.20;99675.00;;;;2088192;28;20287;-67
2023/11/07 04:06:42;;;;;;;3.80;2.00;;;;;21.20;99674.00;;;;2096142;28;20291;-67
2023/11/07 04:07:43;;;;;;;1.70;1.10;;;;;21.20;99680.00;;;;2079393;28;20243;-67
2023/11/07 04:08:43;;;;;;;2.07;1.47;;;;;21.20;99688.00;;;;2087404;28;20197;-67
2023/11/07 04:09:43;;;;;;;3.10;1.80;;;;;21.20;99682.00;;;;2095210;28;20255;-67
2023/11/07 04:10:44;;;;;;;2.53;1.50;;;;;21.20;99688.00;;;;2103656;28;20631;-67
2023/11/07 04:11:44;;;;;;;3.43;1.80;;;;;21.20;99687.00;;;;2095616;28;20575;-67
2023/11/07 04:12:45;;;;;;;2.70;1.50;;;;;21.20;99681.00;;;;2069846;28;20225;-67
2023/11/07 04:13:45;;;;;;;2.83;1.60;;;;;21.20;99681.00;;;;2094100;28;20216;-67
2023/11/07 04:14:46;;;;;;;3.40;1.90;;;;;21.20;99687.00;;;;2088290;28;20704;-68
2023/11/07 04:15:46;;;;;;;5.33;1.73;;;;;21.20;99683.00;;;;2096198;28;20546;-68
2023/11/07 04:16:47;;;;;;;3.00;1.50;;;;;21.20;99689.00;;;;2094035;28;20265;-68
2023/11/07 04:17:48;;;;;;;3.57;1.50;;;;;21.20;99685.00;;;;2078065;28;20236;-68
2023/11/07 04:18:49;;;;;;;2.10;1.40;;;;;21.20;99679.00;;;;2094872;28;20591;-68
2023/11/07 04:19:50;;;;;;;3.27;1.40;;;;;21.20;99675.00;;;;2088415;28;20237;-68
2023/11/07 04:20:51;;;;;;;3.00;1.10;;;;;21.10;99684.00;;;;2085697;28;20236;-68
2023/11/07 04:21:52;;;;;;;2.40;1.20;;;;;21.10;99687.00;;;;2080124;28;20222;-68
2023/11/07 04:22:54;;;;;;;2.97;1.40;;;;;21.10;99688.00;;;;2086308;28;20295;-68
2023/11/07 04:23:54;;;;;;;3.45;1.60;;;;;21.10;99683.00;;;;2094117;28;20224;-68
2023/11/07 04:24:55;;;;;;;2.37;1.63;;;;;21.20;99687.00;;;;2089315;28;20268;-68
2023/11/07 04:25:55;;;;;;;1.93;1.40;;;;;21.10;99700.00;;;;2087085;28;20231;-68
2023/11/07 04:26:55;;;;;;;2.23;1.20;;;;;21.20;99703.00;;;;2082495;28;20776;-68
2023/11/07 04:27:56;;;;;;;1.90;1.13;;;;;21.20;99696.00;;;;2086324;28;20220;-68
2023/11/07 04:28:57;;;;;;;2.92;1.40;;;;;21.20;99696.00;;;;2092230;28;20309;-68
2023/11/07 04:29:58;;;;;;;1.70;1.00;;;;;21.20;99703.00;;;;2081390;28;20244;-68
2023/11/07 04:30:59;;;;;;;1.63;1.05;;;;;21.20;99693.00;;;;2084778;28;20255;-68
2023/11/07 04:32:01;;;;;;;1.83;1.10;;;;;21.20;99702.00;;;;2089060;28;20666;-68
2023/11/07 04:33:02;;;;;;;1.85;1.15;;;;;21.10;99692.00;;;;2076910;28;20213;-68
2023/11/07 04:34:03;;;;;;;3.58;1.55;;;;;21.10;99694.00;;;;2086364;28;20216;-68
2023/11/07 04:35:05;;;;;;;2.13;1.47;;;;;21.10;99692.00;;;;2090357;28;20207;-68
2023/11/07 04:36:06;;;;;;;2.70;1.38;;;;;21.10;99689.00;;;;2091094;28;20618;-68
2023/11/07 04:37:07;;;;;;;1.77;1.30;;;;;21.10;99689.00;;;;2091112;28;20291;-68
2023/11/07 04:38:08;;;;;;;1.97;1.00;;;;;21.10;99684.00;;;;2086250;28;21253;-68
2023/11/07 04:39:09;;;;;;;1.63;1.17;;;;;21.10;99653.00;;;;2087408;28;20464;-68
2023/11/07 04:40:09;;;;;;;2.03;1.17;;;;;21.10;99692.00;;;;2100161;28;20721;-68
2023/11/07 04:41:10;;;;;;;2.03;1.20;;;;;21.10;99694.00;;;;2093945;28;21110;-68
2023/11/07 04:42:10;;;;;;;2.20;1.30;;;;;21.10;99688.00;;;;2096887;28;20200;-68
2023/11/07 04:43:10;;;;;;;1.70;1.20;;;;;21.10;99694.00;;;;2084874;28;20212;-68
2023/11/07 04:44:11;;;;;;;2.63;1.37;;;;;21.10;99685.00;;;;2088985;28;20724;-68
2023/11/07 04:45:11;;;;;;;2.13;1.20;;;;;21.10;99693.00;;;;2093398;28;20220;-68
2023/11/07 04:46:14;;;;;;;6.00;1.73;;;;;21.10;99694.00;;;;2092464;28;20212;-68
2023/11/07 04:47:16;;;;;;;2.15;1.35;;;;;21.10;99695.00;;;;2095222;28;20211;-68
2023/11/07 04:48:16;;;;;;;2.15;1.17;;;;;21.10;99695.00;;;;2081875;28;20277;-68
2023/11/07 04:49:17;;;;;;;2.07;1.03;;;;;21.10;99679.00;;;;2088627;28;20189;-68
2023/11/07 04:50:17;;;;;;;2.20;1.10;;;;;21.10;99693.00;;;;2093182;28;20211;-68
2023/11/07 04:51:20;;;;;;;2.00;1.50;;;;;21.10;99692.00;;;;2093460;28;20200;-67
2023/11/07 04:52:21;;;;;;;1.30;0.90;;;;;21.10;99691.00;;;;2097302;28;20192;-67
2023/11/07 04:53:21;;;;;;;1.90;1.17;;;;;21.10;99687.00;;;;2080009;28;20231;-67
2023/11/07 04:54:21;;;;;;;1.87;0.90;;;;;21.10;99644.00;;;;2088561;28;20584;-67
2023/11/07 04:55:22;;;;;;;3.00;1.23;;;;;21.10;99657.00;;;;2089149;28;20846;-67
2023/11/07 04:56:23;;;;;;;1.60;1.30;;;;;21.10;99689.00;;;;2082856;28;20221;-67
2023/11/07 04:57:23;;;;;;;2.22;1.38;;;;;21.10;99683.00;;;;2094713;28;20240;-67
2023/11/07 04:58:25;;;;;;;2.80;1.20;;;;;21.10;99684.00;;;;2084282;28;20212;-67
2023/11/07 04:59:25;;;;;;;1.40;1.10;;;;;21.10;99684.00;;;;2082537;28;20288;-67
2023/11/07 05:00:26;;;;;;;1.73;1.10;;;;;21.10;99684.00;;;;2071465;28;20217;-67
2023/11/07 05:01:26;;;;;;;1.20;0.70;;;;;21.10;99694.00;;;;2086185;28;20275;-67
2023/11/07 05:02:26;;;;;;;1.50;1.07;;;;;21.10;99689.00;;;;2081745;28;20229;-67